BEL67P LEGE-EBOS
Flight info
| Callsign | BEL67P |
|---|---|
| Flight time | N/A |
| Altitude | 34000 |
| Route | GEANT1B GEANT DCT ESISI DCT BOKNO UN858 VANAD UN874 BAMES UT191 PODEM UN873 BAZOS/N0439F330 DCT KOK KOK8A |
| Aircraft | A320/M-SDE3FGHIRWY/LB1 |
Departure
| Time | 2026-05-07 19:42 |
|---|---|
| Airport | Girona-Costa Brava Airport (LEGE) |
Arrival
| Time | N/A |
|---|---|
| Airport | Ostend-Bruges International Airport (EBOS) |
| Time | Latitude | Longitude | Altitude | Speed | Heading |
|---|---|---|---|---|---|
| 2026-05-07 19:28 | 41.90045 | 2.76538 | 427 ft | 0 kts | 106° |
| 2026-05-07 19:34 | 41.90049 | 2.76520 | 418 ft | 2 kts | 106° |
| 2026-05-07 19:34 | 41.90053 | 2.76499 | 420 ft | 2 kts | 104° |
| 2026-05-07 19:35 | 41.90057 | 2.76477 | 423 ft | 2 kts | 90° |
| 2026-05-07 19:35 | 41.90052 | 2.76459 | 419 ft | 1 kts | 21° |
| 2026-05-07 19:35 | 41.90050 | 2.76458 | 418 ft | 0 kts | 21° |
| 2026-05-07 19:36 | 41.90095 | 2.76476 | 428 ft | 0 kts | 15° |
| 2026-05-07 19:38 | 41.90132 | 2.76485 | 425 ft | 7 kts | 1° |
| 2026-05-07 19:38 | 41.90164 | 2.76448 | 420 ft | 9 kts | 289° |
| 2026-05-07 19:38 | 41.90184 | 2.76359 | 424 ft | 10 kts | 290° |
| 2026-05-07 19:38 | 41.90239 | 2.76341 | 427 ft | 13 kts | 15° |
| 2026-05-07 19:39 | 41.90352 | 2.76385 | 429 ft | 18 kts | 16° |
| 2026-05-07 19:39 | 41.90478 | 2.76432 | 436 ft | 20 kts | 14° |
| 2026-05-07 19:39 | 41.90618 | 2.76485 | 437 ft | 22 kts | 15° |
| 2026-05-07 19:39 | 41.90773 | 2.76543 | 448 ft | 24 kts | 15° |
| 2026-05-07 19:40 | 41.90941 | 2.76607 | 453 ft | 26 kts | 16° |
| 2026-05-07 19:40 | 41.91124 | 2.76678 | 459 ft | 28 kts | 16° |
| 2026-05-07 19:40 | 41.91272 | 2.76735 | 463 ft | 16 kts | 16° |
| 2026-05-07 19:40 | 41.91377 | 2.76768 | 467 ft | 15 kts | 357° |
| 2026-05-07 19:41 | 41.91465 | 2.76718 | 469 ft | 13 kts | 331° |
| 2026-05-07 19:41 | 41.91530 | 2.76654 | 471 ft | 10 kts | 299° |
| 2026-05-07 19:41 | 41.91500 | 2.76585 | 470 ft | 11 kts | 198° |
| 2026-05-07 19:41 | 41.91386 | 2.76543 | 466 ft | 38 kts | 195° |
| 2026-05-07 19:42 | 41.90701 | 2.76287 | 453 ft | 159 kts | 194° |
| 2026-05-07 19:42 | 41.89443 | 2.75831 | 940 ft | 216 kts | 194° |
| 2026-05-07 19:42 | 41.87939 | 2.75301 | 2133 ft | 223 kts | 194° |
| 2026-05-07 19:42 | 41.86487 | 2.74790 | 3933 ft | 214 kts | 194° |
| 2026-05-07 19:43 | 41.84983 | 2.74260 | 5119 ft | 239 kts | 194° |
| 2026-05-07 19:43 | 41.83223 | 2.73641 | 5679 ft | 286 kts | 194° |
| 2026-05-07 19:43 | 41.81140 | 2.72835 | 5938 ft | 337 kts | 201° |
| 2026-05-07 19:43 | 41.79090 | 2.70934 | 6030 ft | 384 kts | 227° |
| 2026-05-07 19:44 | 41.77727 | 2.67808 | 6997 ft | 393 kts | 245° |
| 2026-05-07 19:44 | 41.76382 | 2.64604 | 8163 ft | 396 kts | 236° |
| 2026-05-07 19:44 | 41.74829 | 2.61550 | 9237 ft | 391 kts | 235° |
| 2026-05-07 19:44 | 41.73386 | 2.58737 | 9875 ft | 341 kts | 235° |
| 2026-05-07 19:45 | 41.72130 | 2.56292 | 10463 ft | 297 kts | 235° |
| 2026-05-07 19:45 | 41.71041 | 2.54177 | 11047 ft | 257 kts | 235° |
| 2026-05-07 19:45 | 41.70056 | 2.52262 | 11668 ft | 247 kts | 235° |
| 2026-05-07 19:45 | 41.69083 | 2.50372 | 12311 ft | 247 kts | 235° |
| 2026-05-07 19:46 | 41.68106 | 2.48476 | 12967 ft | 248 kts | 235° |
| 2026-05-07 19:46 | 41.67122 | 2.46568 | 13637 ft | 250 kts | 235° |
| 2026-05-07 19:46 | 41.66196 | 2.44776 | 14212 ft | 252 kts | 235° |
| 2026-05-07 19:47 | 41.90045 | 2.76538 | 14212 ft | 2 kts | 106° |
| 2026-05-07 19:53 | 41.90053 | 2.76500 | 397 ft | 8 kts | 106° |
| 2026-05-07 19:53 | 41.90055 | 2.76445 | 422 ft | 0 kts | 14° |
| 2026-05-07 19:53 | 41.90062 | 2.76447 | 421 ft | 8 kts | 14° |
| 2026-05-07 19:53 | 41.90165 | 2.76482 | 427 ft | 16 kts | 14° |
| 2026-05-07 19:54 | 41.90257 | 2.76514 | 426 ft | 12 kts | 14° |
| 2026-05-07 19:54 | 41.90324 | 2.76530 | 432 ft | 7 kts | 349° |
| 2026-05-07 19:54 | 41.90328 | 2.76480 | 431 ft | 10 kts | 244° |
| 2026-05-07 19:54 | 41.90333 | 2.76390 | 422 ft | 9 kts | 323° |
| 2026-05-07 19:55 | 41.90382 | 2.76395 | 436 ft | 6 kts | 14° |
| 2026-05-07 19:55 | 41.90460 | 2.76425 | 432 ft | 23 kts | 16° |
| 2026-05-07 19:55 | 41.90621 | 2.76488 | 430 ft | 24 kts | 16° |
| 2026-05-07 19:55 | 41.90778 | 2.76546 | 448 ft | 23 kts | 14° |
| 2026-05-07 19:56 | 41.90929 | 2.76602 | 452 ft | 22 kts | 16° |
| 2026-05-07 19:56 | 41.91076 | 2.76658 | 457 ft | 22 kts | 15° |
| 2026-05-07 19:56 | 41.91218 | 2.76711 | 461 ft | 21 kts | 16° |
| 2026-05-07 19:56 | 41.91354 | 2.76764 | 466 ft | 20 kts | 16° |
| 2026-05-07 19:57 | 41.91449 | 2.76730 | 468 ft | 12 kts | 332° |
| 2026-05-07 19:57 | 41.91514 | 2.76681 | 469 ft | 11 kts | 329° |
| 2026-05-07 19:57 | 41.91528 | 2.76610 | 471 ft | 8 kts | 240° |
| 2026-05-07 19:57 | 41.91478 | 2.76577 | 469 ft | 10 kts | 195° |
| 2026-05-07 19:58 | 41.91271 | 2.76502 | 462 ft | 66 kts | 195° |
| 2026-05-07 19:58 | 41.90606 | 2.76253 | 431 ft | 129 kts | 195° |
| 2026-05-07 19:58 | 41.89615 | 2.75875 | 641 ft | 156 kts | 195° |
| 2026-05-07 19:58 | 41.88549 | 2.75457 | 1200 ft | 162 kts | 196° |
| 2026-05-07 19:59 | 41.87447 | 2.75027 | 1835 ft | 170 kts | 195° |
| 2026-05-07 19:59 | 41.86226 | 2.74601 | 2176 ft | 192 kts | 194° |
| 2026-05-07 19:59 | 41.84873 | 2.74144 | 2611 ft | 206 kts | 194° |
| 2026-05-07 19:59 | 41.83461 | 2.73666 | 3248 ft | 210 kts | 193° |
| 2026-05-07 20:00 | 41.82033 | 2.73180 | 3919 ft | 213 kts | 193° |
| 2026-05-07 20:00 | 41.80635 | 2.72485 | 4568 ft | 218 kts | 209° |
| 2026-05-07 20:00 | 41.79431 | 2.71245 | 5308 ft | 221 kts | 226° |
| 2026-05-07 20:00 | 41.78532 | 2.69550 | 5864 ft | 227 kts | 244° |
| 2026-05-07 20:01 | 41.78063 | 2.67541 | 5978 ft | 226 kts | 263° |
| 2026-05-07 20:01 | 41.78083 | 2.65443 | 6003 ft | 225 kts | 281° |
| 2026-05-07 20:01 | 41.78568 | 2.63457 | 6004 ft | 224 kts | 298° |
| 2026-05-07 20:01 | 41.79450 | 2.61782 | 6008 ft | 224 kts | 316° |
| 2026-05-07 20:02 | 41.80675 | 2.60511 | 6009 ft | 223 kts | 333° |
| 2026-05-07 20:02 | 41.82119 | 2.59792 | 6010 ft | 221 kts | 351° |
| 2026-05-07 20:02 | 41.83649 | 2.59622 | 6011 ft | 221 kts | 359° |
| 2026-05-07 20:02 | 41.85188 | 2.59539 | 6005 ft | 221 kts | 359° |
| 2026-05-07 20:03 | 41.86726 | 2.59449 | 6010 ft | 221 kts | 359° |
| 2026-05-07 20:03 | 41.88269 | 2.59356 | 6081 ft | 224 kts | 358° |
| 2026-05-07 20:03 | 41.89820 | 2.59262 | 6830 ft | 223 kts | 358° |
| 2026-05-07 20:03 | 41.91380 | 2.59167 | 7584 ft | 225 kts | 358° |
| 2026-05-07 20:04 | 41.92955 | 2.59071 | 8314 ft | 227 kts | 358° |
| 2026-05-07 20:04 | 41.94541 | 2.58971 | 9037 ft | 230 kts | 358° |
| 2026-05-07 20:04 | 41.96148 | 2.58873 | 9774 ft | 232 kts | 358° |
| 2026-05-07 20:04 | 41.97771 | 2.58776 | 10453 ft | 235 kts | 358° |
| 2026-05-07 20:05 | 41.99412 | 2.58677 | 11126 ft | 237 kts | 358° |
| 2026-05-07 20:05 | 42.01068 | 2.58575 | 11795 ft | 240 kts | 358° |
| 2026-05-07 20:05 | 42.02724 | 2.58473 | 12463 ft | 242 kts | 357° |
| 2026-05-07 20:05 | 42.04441 | 2.58368 | 13167 ft | 245 kts | 357° |
| 2026-05-07 20:06 | 42.06146 | 2.58264 | 13854 ft | 247 kts | 357° |
| 2026-05-07 20:06 | 42.07851 | 2.58160 | 14456 ft | 249 kts | 357° |
| 2026-05-07 20:06 | 42.09587 | 2.57938 | 15060 ft | 252 kts | 346° |
| 2026-05-07 20:06 | 42.11232 | 2.57124 | 15641 ft | 254 kts | 329° |
| 2026-05-07 20:07 | 42.12671 | 2.55740 | 16251 ft | 255 kts | 319° |
| 2026-05-07 20:07 | 42.14043 | 2.54205 | 16872 ft | 257 kts | 319° |
| 2026-05-07 20:07 | 42.15430 | 2.52664 | 17491 ft | 260 kts | 319° |
| 2026-05-07 20:07 | 42.16836 | 2.51110 | 18111 ft | 262 kts | 319° |
| 2026-05-07 20:08 | 42.18248 | 2.49546 | 18666 ft | 264 kts | 319° |
| 2026-05-07 20:08 | 42.19674 | 2.47967 | 19173 ft | 267 kts | 319° |
| 2026-05-07 20:08 | 42.21115 | 2.46373 | 19677 ft | 269 kts | 318° |
| 2026-05-07 20:08 | 42.22567 | 2.44764 | 20184 ft | 272 kts | 318° |
| 2026-05-07 20:09 | 42.24036 | 2.43136 | 20707 ft | 274 kts | 317° |
| 2026-05-07 20:09 | 42.25503 | 2.41510 | 21202 ft | 277 kts | 317° |
| 2026-05-07 20:09 | 42.26998 | 2.39850 | 21702 ft | 279 kts | 316° |
| 2026-05-07 20:10 | 42.30028 | 2.36478 | 22689 ft | 285 kts | 316° |
| 2026-05-07 20:10 | 42.31566 | 2.34770 | 23180 ft | 288 kts | 315° |
| 2026-05-07 20:10 | 42.33122 | 2.33041 | 23645 ft | 290 kts | 315° |
| 2026-05-07 20:10 | 42.34689 | 2.31293 | 24029 ft | 294 kts | 315° |
| 2026-05-07 20:11 | 42.36275 | 2.29521 | 24416 ft | 298 kts | 314° |
| 2026-05-07 20:11 | 42.37881 | 2.27727 | 24810 ft | 301 kts | 315° |
| 2026-05-07 20:11 | 42.39507 | 2.25911 | 25185 ft | 305 kts | 315° |
| 2026-05-07 20:11 | 42.41194 | 2.24133 | 25560 ft | 311 kts | 320° |
| 2026-05-07 20:12 | 42.43066 | 2.22593 | 25941 ft | 319 kts | 327° |
| 2026-05-07 20:12 | 42.45115 | 2.21344 | 26297 ft | 327 kts | 334° |
| 2026-05-07 20:12 | 42.47307 | 2.20416 | 26620 ft | 334 kts | 341° |
| 2026-05-07 20:12 | 42.49597 | 2.19716 | 26950 ft | 340 kts | 342° |
| 2026-05-07 20:13 | 42.51914 | 2.19007 | 27271 ft | 343 kts | 341° |
| 2026-05-07 20:13 | 42.54257 | 2.18282 | 27609 ft | 348 kts | 341° |
| 2026-05-07 20:13 | 42.56631 | 2.17546 | 27939 ft | 352 kts | 341° |
| 2026-05-07 20:13 | 42.59035 | 2.16802 | 28226 ft | 356 kts | 341° |
| 2026-05-07 20:14 | 42.61433 | 2.16059 | 28535 ft | 360 kts | 340° |
| 2026-05-07 20:14 | 42.63885 | 2.15303 | 28803 ft | 366 kts | 340° |
| 2026-05-07 20:14 | 42.66406 | 2.14519 | 28943 ft | 376 kts | 340° |
| 2026-05-07 20:14 | 42.68989 | 2.13710 | 29079 ft | 386 kts | 340° |
| 2026-05-07 20:15 | 42.71644 | 2.12881 | 29220 ft | 396 kts | 341° |
| 2026-05-07 20:15 | 42.74365 | 2.12038 | 29373 ft | 406 kts | 341° |
| 2026-05-07 20:15 | 42.77151 | 2.11176 | 29606 ft | 414 kts | 341° |
| 2026-05-07 20:15 | 42.79974 | 2.10306 | 29999 ft | 418 kts | 340° |
| 2026-05-07 20:16 | 42.81862 | 2.09722 | 30220 ft | 421 kts | 340° |
| 2026-05-07 20:16 | 42.84728 | 2.08833 | 30561 ft | 423 kts | 340° |
| 2026-05-07 20:16 | 42.87608 | 2.07936 | 30892 ft | 426 kts | 340° |
| 2026-05-07 20:16 | 42.90526 | 2.07021 | 31012 ft | 435 kts | 340° |
| 2026-05-07 20:17 | 42.93509 | 2.06083 | 31140 ft | 443 kts | 340° |
| 2026-05-07 20:17 | 42.96544 | 2.05132 | 31270 ft | 451 kts | 340° |
| 2026-05-07 20:17 | 42.99632 | 2.04168 | 31397 ft | 459 kts | 341° |
| 2026-05-07 20:17 | 43.02763 | 2.03192 | 31525 ft | 465 kts | 341° |
| 2026-05-07 20:18 | 43.05936 | 2.02201 | 31653 ft | 470 kts | 341° |
| 2026-05-07 20:18 | 43.09154 | 2.01195 | 31795 ft | 475 kts | 341° |
| 2026-05-07 20:18 | 43.12338 | 2.00197 | 31983 ft | 477 kts | 341° |
| 2026-05-07 20:18 | 43.15626 | 1.99164 | 32199 ft | 479 kts | 341° |
| 2026-05-07 20:19 | 43.18840 | 1.98149 | 32399 ft | 481 kts | 341° |
| 2026-05-07 20:19 | 43.22110 | 1.97116 | 32626 ft | 482 kts | 342° |
| 2026-05-07 20:19 | 43.25392 | 1.96079 | 32860 ft | 482 kts | 342° |
| 2026-05-07 20:19 | 43.28657 | 1.95045 | 33054 ft | 483 kts | 342° |
| 2026-05-07 20:20 | 43.31943 | 1.94004 | 33225 ft | 484 kts | 342° |
| 2026-05-07 20:20 | 43.35230 | 1.92963 | 33386 ft | 485 kts | 342° |
| 2026-05-07 20:20 | 43.38498 | 1.91927 | 33531 ft | 487 kts | 342° |
| 2026-05-07 20:20 | 43.41830 | 1.90866 | 33717 ft | 488 kts | 342° |
| 2026-05-07 20:21 | 43.45123 | 1.89817 | 33925 ft | 484 kts | 343° |
| 2026-05-07 20:21 | 43.51616 | 1.87756 | 33982 ft | 481 kts | 343° |
| 2026-05-07 20:22 | 43.58172 | 1.85674 | 33980 ft | 480 kts | 343° |